Time;durP1;ratioP1;P1;durP2;ratioP2;P2;SDS_P1;SDS_P2;PMS_P1;PMS_P2;Temp;Humidity;BMP_temperature;BMP_pressure;BME280_temperature;BME280_humidity;BME280_pressure;Samples;Min_cycle;Max_cycle;Signal;HPM_P1;HPM_P2
2021/03/03 00:01:05;;;;;;;11.30;7.28;;;;;;;;;;5050792;28;20416;-83
2021/03/03 00:03:31;;;;;;;10.83;7.23;;;;;;;;;;5050848;28;20184;-83
2021/03/03 00:05:57;;;;;;;10.83;6.93;;;;;;;;;;5073132;28;20215;-83
2021/03/03 00:08:23;;;;;;;9.17;6.50;;;;;;;;;;5048115;28;20169;-84
2021/03/03 00:10:49;;;;;;;9.37;6.20;;;;;;;;;;5055148;28;20204;-83
2021/03/03 00:13:15;;;;;;;7.77;6.00;;;;;;;;;;5049274;28;20177;-83
2021/03/03 00:15:41;;;;;;;7.20;5.40;;;;;;;;;;5051595;28;20731;-83
2021/03/03 00:18:08;;;;;;;8.37;6.10;;;;;;;;;;5050597;28;20276;-83
2021/03/03 00:20:34;;;;;;;8.00;5.83;;;;;;;;;;5053509;28;20671;-83
2021/03/03 00:23:00;;;;;;;9.30;6.87;;;;;;;;;;5046939;28;20223;-83
2021/03/03 00:25:26;;;;;;;9.43;6.50;;;;;;;;;;5054407;28;20264;-83
2021/03/03 00:27:52;;;;;;;7.93;5.90;;;;;;;;;;5051406;28;20185;-84
2021/03/03 00:30:18;;;;;;;9.13;6.47;;;;;;;;;;5046938;28;20691;-83
2021/03/03 00:32:45;;;;;;;9.23;6.60;;;;;;;;;;5054546;28;20191;-83
2021/03/03 00:35:11;;;;;;;8.50;6.57;;;;;;;;;;5054344;28;20212;-83
2021/03/03 00:37:37;;;;;;;12.23;6.17;;;;;;;;;;5072597;28;20523;-83
2021/03/03 00:40:07;;;;;;;7.50;5.27;;;;;;;;;;5047548;28;20181;-83
2021/03/03 00:42:33;;;;;;;8.60;6.40;;;;;;;;;;5053904;28;20172;-83
2021/03/03 00:44:59;;;;;;;7.37;5.80;;;;;;;;;;5061921;28;20196;-83
2021/03/03 00:47:25;;;;;;;9.43;6.13;;;;;;;;;;5047683;28;20235;-84
2021/03/03 00:49:51;;;;;;;7.13;5.00;;;;;;;;;;5053598;28;20175;-83
2021/03/03 00:52:17;;;;;;;7.97;5.80;;;;;;;;;;5052349;28;20646;-83
2021/03/03 00:54:44;;;;;;;6.93;5.70;;;;;;;;;;5053834;28;20169;-83
2021/03/03 00:57:10;;;;;;;9.70;6.17;;;;;;;;;;5071844;28;20271;-83
2021/03/03 00:59:36;;;;;;;9.80;5.67;;;;;;;;;;5049380;28;20185;-83
2021/03/03 01:02:02;;;;;;;10.13;6.13;;;;;;;;;;5070997;28;20180;-83
2021/03/03 01:04:28;;;;;;;9.50;6.20;;;;;;;;;;5045988;28;20214;-83
2021/03/03 01:06:54;;;;;;;8.30;5.93;;;;;;;;;;5048214;28;20256;-83
2021/03/03 01:09:20;;;;;;;8.47;5.83;;;;;;;;;;5046181;28;20241;-83
2021/03/03 01:11:46;;;;;;;8.67;5.70;;;;;;;;;;5054428;28;20187;-83
2021/03/03 01:14:21;;;;;;;6.97;5.17;;;;;;;;;;5048265;28;20180;-83
2021/03/03 01:16:53;;;;;;;10.33;6.27;;;;;;;;;;5060331;28;20238;-83
2021/03/03 01:19:21;;;;;;;10.13;6.27;;;;;;;;;;5051517;28;20230;-85
2021/03/03 01:22:13;;;;;;;6.63;5.27;;;;;;;;;;5064722;28;20180;-84
2021/03/03 01:24:40;;;;;;;7.50;5.83;;;;;;;;;;5057895;28;20196;-83
2021/03/03 01:27:07;;;;;;;9.73;6.07;;;;;;;;;;5051538;28;20602;-83
2021/03/03 01:29:33;;;;;;;9.70;6.03;;;;;;;;;;5054620;28;20208;-83
2021/03/03 01:31:59;;;;;;;8.57;6.17;;;;;;;;;;5052933;28;20224;-81
2021/03/03 01:34:25;;;;;;;8.07;6.10;;;;;;;;;;5071528;28;20207;-81
2021/03/03 01:36:51;;;;;;;11.70;6.33;;;;;;;;;;5069599;28;20208;-81
2021/03/03 01:39:17;;;;;;;7.87;5.80;;;;;;;;;;5071872;28;20172;-81
2021/03/03 01:41:43;;;;;;;7.20;5.83;;;;;;;;;;5052597;28;20238;-80
2021/03/03 01:44:09;;;;;;;8.03;5.50;;;;;;;;;;5053609;28;20180;-81
2021/03/03 01:46:35;;;;;;;7.93;5.90;;;;;;;;;;5052743;28;20191;-83
2021/03/03 01:49:01;;;;;;;9.13;6.00;;;;;;;;;;5042189;28;20332;-83
2021/03/03 01:51:27;;;;;;;8.43;5.97;;;;;;;;;;5036450;28;20177;-80
2021/03/03 01:53:54;;;;;;;7.37;5.33;;;;;;;;;;5036106;28;20193;-80
2021/03/03 01:56:20;;;;;;;11.77;5.60;;;;;;;;;;5026141;28;20560;-80
2021/03/03 01:58:46;;;;;;;6.90;5.07;;;;;;;;;;5033062;28;20239;-81
2021/03/03 02:01:12;;;;;;;9.37;6.57;;;;;;;;;;5033781;28;20189;-83
2021/03/03 02:03:39;;;;;;;8.23;6.00;;;;;;;;;;5033645;28;20181;-83
2021/03/03 02:06:10;;;;;;;6.87;5.23;;;;;;;;;;5041890;28;20632;-83
2021/03/03 02:08:41;;;;;;;7.97;5.97;;;;;;;;;;5054814;28;20212;-83
2021/03/03 02:11:13;;;;;;;6.87;5.80;;;;;;;;;;5061155;28;20337;-83
2021/03/03 02:13:57;;;;;;;9.93;6.00;;;;;;;;;;5039376;28;20189;-82
2021/03/03 02:16:23;;;;;;;7.50;5.63;;;;;;;;;;5050295;28;20204;-83
2021/03/03 02:18:49;;;;;;;8.97;6.00;;;;;;;;;;5044506;28;20593;-83
2021/03/03 02:21:22;;;;;;;7.50;5.63;;;;;;;;;;5040812;28;20239;-83
2021/03/03 02:24:08;;;;;;;6.23;4.90;;;;;;;;;;5032489;28;20204;-83
2021/03/03 02:26:36;;;;;;;8.33;5.67;;;;;;;;;;5031393;28;20188;-82
2021/03/03 02:29:07;;;;;;;7.63;6.10;;;;;;;;;;5050451;28;20181;-82
2021/03/03 02:31:34;;;;;;;8.83;5.60;;;;;;;;;;5034212;28;20711;-83
2021/03/03 02:34:01;;;;;;;8.87;5.90;;;;;;;;;;5057703;28;20181;-83
2021/03/03 02:36:28;;;;;;;7.90;5.70;;;;;;;;;;5040661;28;20665;-83
2021/03/03 02:38:55;;;;;;;7.93;5.43;;;;;;;;;;5032933;28;20246;-83
2021/03/03 02:41:21;;;;;;;8.00;5.40;;;;;;;;;;5042089;28;20640;-83
2021/03/03 02:43:48;;;;;;;7.73;5.87;;;;;;;;;;5022323;28;20204;-82
2021/03/03 02:46:15;;;;;;;8.67;5.53;;;;;;;;;;5053388;28;20238;-83
2021/03/03 02:48:41;;;;;;;8.90;5.13;;;;;;;;;;5037552;28;20227;-83
2021/03/03 02:51:08;;;;;;;8.00;5.83;;;;;;;;;;5029912;28;20230;-83
2021/03/03 02:53:34;;;;;;;8.27;5.90;;;;;;;;;;5035224;28;20589;-83
2021/03/03 02:56:00;;;;;;;8.17;6.03;;;;;;;;;;5032166;28;20220;-83
2021/03/03 02:58:26;;;;;;;8.00;5.73;;;;;;;;;;5031671;28;20212;-83
2021/03/03 03:00:56;;;;;;;7.47;4.67;;;;;;;;;;5027267;28;20181;-83
2021/03/03 03:03:22;;;;;;;9.07;6.40;;;;;;;;;;5034356;28;20203;-83
2021/03/03 03:05:52;;;;;;;7.53;5.97;;;;;;;;;;5033634;28;20189;-83
2021/03/03 03:08:20;;;;;;;8.33;5.73;;;;;;;;;;5063846;28;20196;-83
2021/03/03 03:10:46;;;;;;;8.03;6.10;;;;;;;;;;5036273;28;20228;-83
2021/03/03 03:13:13;;;;;;;7.83;5.23;;;;;;;;;;5036316;28;20245;-83
2021/03/03 03:15:39;;;;;;;7.77;5.80;;;;;;;;;;5049555;28;20220;-83
2021/03/03 03:18:08;;;;;;;7.63;5.70;;;;;;;;;;5061655;28;20599;-83
2021/03/03 03:20:36;;;;;;;6.67;5.57;;;;;;;;;;5050490;28;20209;-83
2021/03/03 03:23:04;;;;;;;7.03;5.70;;;;;;;;;;5049663;28;20177;-83
2021/03/03 03:25:31;;;;;;;8.20;5.10;;;;;;;;;;5042159;28;20615;-83
2021/03/03 03:27:59;;;;;;;8.07;5.23;;;;;;;;;;5060290;28;20663;-83
2021/03/03 03:30:25;;;;;;;7.50;5.87;;;;;;;;;;5046400;28;20639;-83
2021/03/03 03:32:52;;;;;;;8.33;5.03;;;;;;;;;;5052773;28;20193;-83
2021/03/03 03:35:18;;;;;;;6.33;5.27;;;;;;;;;;5053026;28;20188;-83
2021/03/03 03:37:44;;;;;;;8.13;6.03;;;;;;;;;;5036283;28;20182;-83
2021/03/03 03:40:11;;;;;;;8.57;6.03;;;;;;;;;;5044284;28;20263;-83
2021/03/03 03:42:37;;;;;;;7.97;5.30;;;;;;;;;;5053279;28;20537;-83
2021/03/03 03:45:05;;;;;;;8.47;6.03;;;;;;;;;;5034246;28;20514;-83
2021/03/03 03:47:31;;;;;;;7.47;5.30;;;;;;;;;;5055993;28;20197;-83
2021/03/03 03:50:01;;;;;;;8.10;5.17;;;;;;;;;;5043059;28;20184;-83
2021/03/03 03:52:27;;;;;;;7.73;6.10;;;;;;;;;;5069396;28;20184;-83
2021/03/03 03:54:53;;;;;;;8.03;5.40;;;;;;;;;;5072010;28;20172;-82
2021/03/03 03:57:20;;;;;;;8.27;5.50;;;;;;;;;;5069514;28;20245;-83
2021/03/03 03:59:46;;;;;;;8.07;5.17;;;;;;;;;;5055714;28;20222;-83
2021/03/03 04:02:12;;;;;;;8.33;5.50;;;;;;;;;;5047023;28;20184;-83
2021/03/03 04:04:38;;;;;;;7.93;5.17;;;;;;;;;;5044655;28;20181;-83
2021/03/03 04:07:05;;;;;;;8.27;5.43;;;;;;;;;;5068774;28;20176;-83
2021/03/03 04:09:32;;;;;;;8.03;5.70;;;;;;;;;;5059032;28;20208;-83
2021/03/03 04:11:58;;;;;;;6.53;5.20;;;;;;;;;;5054174;28;20176;-82
2021/03/03 04:14:24;;;;;;;7.50;5.63;;;;;;;;;;5052319;28;20215;-82
2021/03/03 04:16:50;;;;;;;8.60;5.87;;;;;;;;;;5063260;28;20232;-83
2021/03/03 04:19:17;;;;;;;10.17;6.13;;;;;;;;;;5046126;28;20207;-82
2021/03/03 04:21:43;;;;;;;20.00;7.00;;;;;;;;;;5068434;28;20173;-82
2021/03/03 04:24:09;;;;;;;6.67;5.30;;;;;;;;;;5036892;28;20184;-82
2021/03/03 04:26:35;;;;;;;8.07;5.77;;;;;;;;;;5039402;28;20289;-82
2021/03/03 04:29:01;;;;;;;6.80;5.37;;;;;;;;;;5074715;28;20179;-82
2021/03/03 04:31:27;;;;;;;6.07;4.40;;;;;;;;;;5056279;28;20191;-82
2021/03/03 04:33:53;;;;;;;6.33;5.13;;;;;;;;;;5049961;28;20226;-82
2021/03/03 04:36:19;;;;;;;7.37;6.00;;;;;;;;;;5072415;28;20192;-82
2021/03/03 04:38:45;;;;;;;8.70;5.67;;;;;;;;;;5041323;28;20254;-82
2021/03/03 04:41:11;;;;;;;8.23;5.70;;;;;;;;;;5051380;28;20569;-81
2021/03/03 04:43:37;;;;;;;7.27;5.37;;;;;;;;;;5074318;28;20173;-82
2021/03/03 04:46:03;;;;;;;7.70;5.63;;;;;;;;;;5073929;28;20185;-82
2021/03/03 04:48:29;;;;;;;7.43;5.37;;;;;;;;;;5048057;28;20706;-82
2021/03/03 04:50:55;;;;;;;7.90;5.50;;;;;;;;;;5055724;28;20655;-82
2021/03/03 04:53:23;;;;;;;7.67;6.20;;;;;;;;;;5029455;28;20186;-82
2021/03/03 04:55:49;;;;;;;7.83;5.73;;;;;;;;;;5042979;28;20652;-82
2021/03/03 04:58:15;;;;;;;7.63;5.43;;;;;;;;;;5066996;28;20308;-82
2021/03/03 05:00:41;;;;;;;8.20;5.23;;;;;;;;;;5070830;28;20620;-82
2021/03/03 05:03:07;;;;;;;8.77;6.37;;;;;;;;;;5044034;28;20264;-82
2021/03/03 05:05:33;;;;;;;7.70;5.60;;;;;;;;;;5055693;28;20176;-82
2021/03/03 05:07:59;;;;;;;7.37;5.37;;;;;;;;;;5071574;28;20647;-82
2021/03/03 05:10:25;;;;;;;6.83;5.20;;;;;;;;;;5037820;28;20209;-82
2021/03/03 05:12:51;;;;;;;11.33;5.57;;;;;;;;;;5045496;28;20187;-82
2021/03/03 05:15:18;;;;;;;7.70;5.33;;;;;;;;;;5073619;28;20180;-83
2021/03/03 05:17:44;;;;;;;7.20;5.97;;;;;;;;;;5073493;28;20168;-82
2021/03/03 05:20:11;;;;;;;9.37;6.07;;;;;;;;;;5037353;28;20620;-82
2021/03/03 05:22:37;;;;;;;8.83;5.67;;;;;;;;;;5060348;28;20185;-82
2021/03/03 05:25:04;;;;;;;8.00;5.40;;;;;;;;;;5053501;28;20187;-82
2021/03/03 05:27:30;;;;;;;7.03;5.13;;;;;;;;;;5046834;28;20658;-82
2021/03/03 05:29:56;;;;;;;7.23;5.50;;;;;;;;;;5040582;28;20198;-82
2021/03/03 05:32:22;;;;;;;7.97;5.67;;;;;;;;;;5063608;28;20189;-82
2021/03/03 05:34:48;;;;;;;6.03;5.03;;;;;;;;;;5050594;28;20180;-82
2021/03/03 05:37:14;;;;;;;8.50;4.97;;;;;;;;;;5039190;28;20197;-82
2021/03/03 05:39:40;;;;;;;8.03;5.20;;;;;;;;;;5042279;28;20287;-83
2021/03/03 05:42:07;;;;;;;7.37;5.17;;;;;;;;;;5045349;28;20177;-83
2021/03/03 05:44:33;;;;;;;7.33;5.37;;;;;;;;;;5070721;28;20174;-83
2021/03/03 05:46:59;;;;;;;7.03;5.17;;;;;;;;;;5060790;28;20177;-83
2021/03/03 05:49:26;;;;;;;7.80;4.83;;;;;;;;;;5025457;28;20231;-83
2021/03/03 05:51:54;;;;;;;8.07;5.70;;;;;;;;;;5072941;28;20520;-82
2021/03/03 05:54:21;;;;;;;10.30;6.27;;;;;;;;;;5044573;28;20177;-83
2021/03/03 05:56:47;;;;;;;8.80;5.20;;;;;;;;;;5050325;28;20204;-82
2021/03/03 05:59:15;;;;;;;12.30;6.60;;;;;;;;;;5048300;28;20165;-82
2021/03/03 06:01:41;;;;;;;10.70;5.90;;;;;;;;;;5035204;28;20203;-82
2021/03/03 06:04:10;;;;;;;8.73;5.90;;;;;;;;;;5049890;28;20174;-82
2021/03/03 06:06:41;;;;;;;9.50;6.40;;;;;;;;;;5024791;28;20181;-83
2021/03/03 06:09:07;;;;;;;10.27;6.33;;;;;;;;;;5068994;28;20268;-82
2021/03/03 06:11:33;;;;;;;9.30;7.07;;;;;;;;;;5052531;28;20672;-82
2021/03/03 06:14:00;;;;;;;10.37;6.40;;;;;;;;;;5047524;28;20493;-82
2021/03/03 06:16:26;;;;;;;10.07;6.03;;;;;;;;;;5045340;28;20203;-82
2021/03/03 06:18:55;;;;;;;8.63;6.33;;;;;;;;;;5070444;28;21052;-82
2021/03/03 06:21:24;;;;;;;9.00;6.67;;;;;;;;;;5068393;28;20251;-82
2021/03/03 06:23:58;;;;;;;10.20;6.10;;;;;;;;;;5055553;28;20181;-82
2021/03/03 06:26:24;;;;;;;10.80;5.90;;;;;;;;;;5055811;28;20196;-82
2021/03/03 06:28:50;;;;;;;9.93;6.67;;;;;;;;;;5064027;28;20176;-82
2021/03/03 06:31:43;;;;;;;8.33;6.10;;;;;;;;;;5047039;28;20178;-82
2021/03/03 06:34:09;;;;;;;6.80;5.77;;;;;;;;;;5041321;28;20664;-83
2021/03/03 06:36:35;;;;;;;8.20;5.83;;;;;;;;;;5037626;28;20204;-83
2021/03/03 06:39:17;;;;;;;8.83;5.63;;;;;;;;;;5051009;28;20172;-83
2021/03/03 06:41:43;;;;;;;8.37;5.47;;;;;;;;;;5072984;28;20552;-82
2021/03/03 06:44:09;;;;;;;9.83;6.47;;;;;;;;;;5055299;28;20184;-82
2021/03/03 06:46:37;;;;;;;7.93;5.57;;;;;;;;;;5035543;28;20207;-82
2021/03/03 06:49:03;;;;;;;9.47;6.03;;;;;;;;;;5066991;28;20227;-82
2021/03/03 06:51:31;;;;;;;7.30;5.37;;;;;;;;;;5064579;28;20176;-82
2021/03/03 06:53:59;;;;;;;9.77;5.60;;;;;;;;;;5068057;28;20178;-81
2021/03/03 06:56:37;;;;;;;8.67;6.10;;;;;;;;;;5074026;28;20207;-82
2021/03/03 06:59:09;;;;;;;8.37;6.13;;;;;;;;;;5045982;28;20188;-82
2021/03/03 07:01:35;;;;;;;7.93;5.97;;;;;;;;;;5037525;28;20230;-82
2021/03/03 07:04:01;;;;;;;8.27;5.63;;;;;;;;;;5064663;28;20579;-81
2021/03/03 07:06:33;;;;;;;7.97;5.60;;;;;;;;;;5059580;28;20181;-82
2021/03/03 07:08:59;;;;;;;9.63;5.70;;;;;;;;;;5034619;28;20178;-82
2021/03/03 07:11:29;;;;;;;10.23;6.27;;;;;;;;;;5041267;28;20219;-82
2021/03/03 07:13:55;;;;;;;9.73;6.30;;;;;;;;;;5047960;28;20181;-82
2021/03/03 07:16:21;;;;;;;7.10;5.70;;;;;;;;;;5049338;28;20743;-82
2021/03/03 07:18:47;;;;;;;8.97;6.37;;;;;;;;;;5051568;28;20173;-82
2021/03/03 07:21:13;;;;;;;7.50;5.13;;;;;;;;;;5045869;28;20176;-82
2021/03/03 07:23:47;;;;;;;8.07;5.53;;;;;;;;;;5040079;28;20659;-83
2021/03/03 07:26:14;;;;;;;8.00;5.83;;;;;;;;;;5051853;28;20200;-83
2021/03/03 07:28:40;;;;;;;9.30;6.00;;;;;;;;;;5056365;28;20207;-82
2021/03/03 07:31:10;;;;;;;10.10;6.25;;;;;;;;;;5051011;28;20454;-82
2021/03/03 07:33:37;;;;;;;7.53;5.67;;;;;;;;;;5049189;28;20682;-82
2021/03/03 07:36:04;;;;;;;12.57;6.17;;;;;;;;;;5035554;28;20687;-82
2021/03/03 07:38:32;;;;;;;9.07;6.03;;;;;;;;;;5057763;28;20263;-82
2021/03/03 07:41:02;;;;;;;9.87;6.07;;;;;;;;;;5076388;28;20523;-82
2021/03/03 07:43:28;;;;;;;11.27;7.17;;;;;;;;;;5028173;28;20173;-82
2021/03/03 07:45:55;;;;;;;8.00;5.97;;;;;;;;;;5055263;28;20283;-82
2021/03/03 07:48:21;;;;;;;7.53;5.93;;;;;;;;;;5056702;28;20216;-82
2021/03/03 07:50:48;;;;;;;9.30;5.70;;;;;;;;;;5040442;28;20189;-82
2021/03/03 07:53:14;;;;;;;8.27;6.33;;;;;;;;;;5037362;28;20188;-82
2021/03/03 07:55:40;;;;;;;8.30;5.83;;;;;;;;;;5076218;28;20219;-82
2021/03/03 07:58:07;;;;;;;10.10;6.63;;;;;;;;;;5057994;28;20180;-82
2021/03/03 08:00:34;;;;;;;8.97;6.77;;;;;;;;;;5049405;28;20292;-81
2021/03/03 08:03:01;;;;;;;10.70;7.20;;;;;;;;;;5051266;28;20248;-82
2021/03/03 08:05:27;;;;;;;8.57;6.30;;;;;;;;;;5057242;28;20545;-82
2021/03/03 08:08:12;;;;;;;9.40;6.00;;;;;;;;;;5057249;28;20529;-82
2021/03/03 08:10:39;;;;;;;10.80;5.83;;;;;;;;;;5057193;28;20192;-82
2021/03/03 08:13:12;;;;;;;9.60;6.97;;;;;;;;;;5056433;28;20294;-82
2021/03/03 08:15:39;;;;;;;10.80;6.90;;;;;;;;;;5057249;28;20203;-82
2021/03/03 08:18:14;;;;;;;14.37;7.40;;;;;;;;;;5049466;28;20160;-82
2021/03/03 08:20:41;;;;;;;11.30;7.67;;;;;;;;;;5057789;28;20270;-82
2021/03/03 08:23:07;;;;;;;10.00;6.67;;;;;;;;;;5057316;28;20180;-82
2021/03/03 08:25:43;;;;;;;11.17;7.13;;;;;;;;;;5049474;28;20209;-82
2021/03/03 08:28:28;;;;;;;11.20;6.87;;;;;;;;;;5037724;28;20197;-82
2021/03/03 08:31:09;;;;;;;10.47;6.80;;;;;;;;;;5069735;28;20168;-82
2021/03/03 08:33:41;;;;;;;11.23;7.47;;;;;;;;;;5065374;28;20179;-82
2021/03/03 08:36:08;;;;;;;13.40;7.80;;;;;;;;;;5040911;28;20647;-82
2021/03/03 08:38:34;;;;;;;9.40;6.77;;;;;;;;;;5037565;28;20209;-82
2021/03/03 08:41:28;;;;;;;11.57;7.80;;;;;;;;;;5037294;28;20632;-82
2021/03/03 08:44:12;;;;;;;12.63;8.13;;;;;;;;;;5030890;28;20211;-82
2021/03/03 08:46:39;;;;;;;13.03;7.87;;;;;;;;;;5063166;28;20177;-82
2021/03/03 08:49:05;;;;;;;11.27;7.33;;;;;;;;;;5040217;28;20560;-82
2021/03/03 08:51:36;;;;;;;9.73;7.07;;;;;;;;;;5071522;28;20184;-82
2021/03/03 08:54:03;;;;;;;12.07;8.47;;;;;;;;;;5056720;28;20207;-82
2021/03/03 08:56:35;;;;;;;12.50;8.17;;;;;;;;;;5074455;28;20204;-82
2021/03/03 08:59:02;;;;;;;13.67;7.67;;;;;;;;;;5054155;28;20184;-82
2021/03/03 09:01:47;;;;;;;13.60;8.73;;;;;;;;;;5044732;28;20311;-82
2021/03/03 09:04:13;;;;;;;10.97;7.23;;;;;;;;;;5052930;28;20193;-82
2021/03/03 09:06:40;;;;;;;14.70;8.20;;;;;;;;;;5057031;28;20180;-83
2021/03/03 09:09:06;;;;;;;11.40;8.40;;;;;;;;;;5074335;28;20180;-82
2021/03/03 09:11:32;;;;;;;15.33;7.77;;;;;;;;;;5047975;28;20204;-82
2021/03/03 09:13:59;;;;;;;13.03;8.37;;;;;;;;;;5075350;28;20234;-82
2021/03/03 09:16:25;;;;;;;12.57;8.57;;;;;;;;;;5055911;28;20192;-82
2021/03/03 09:19:07;;;;;;;13.83;8.83;;;;;;;;;;5071830;28;20177;-82
2021/03/03 09:21:33;;;;;;;16.63;9.13;;;;;;;;;;5041176;28;20172;-82
2021/03/03 09:24:10;;;;;;;12.03;7.33;;;;;;;;;;5073048;28;20180;-82
2021/03/03 09:26:36;;;;;;;13.13;9.07;;;;;;;;;;5039016;28;20186;-82
2021/03/03 09:29:03;;;;;;;13.97;9.00;;;;;;;;;;5048325;28;20604;-82
2021/03/03 09:31:36;;;;;;;12.73;8.63;;;;;;;;;;5055443;28;20189;-82
2021/03/03 09:34:03;;;;;;;15.03;8.40;;;;;;;;;;5073955;28;20567;-82
2021/03/03 09:36:29;;;;;;;14.23;8.87;;;;;;;;;;5037705;28;20212;-82
2021/03/03 09:38:57;;;;;;;13.93;8.33;;;;;;;;;;5056608;28;20565;-82
2021/03/03 09:41:24;;;;;;;14.67;8.70;;;;;;;;;;5072577;28;20618;-82
2021/03/03 09:44:06;;;;;;;18.63;9.63;;;;;;;;;;5036134;28;20173;-82
2021/03/03 09:46:51;;;;;;;13.87;9.40;;;;;;;;;;5040229;28;20183;-82
2021/03/03 09:49:24;;;;;;;13.60;8.90;;;;;;;;;;5056252;28;20220;-82
2021/03/03 09:51:50;;;;;;;11.70;8.03;;;;;;;;;;5043626;28;20264;-82
2021/03/03 09:54:46;;;;;;;14.90;10.27;;;;;;;;;;5028968;28;20182;-82
2021/03/03 09:57:22;;;;;;;14.17;9.17;;;;;;;;;;5019895;28;20216;-83
2021/03/03 09:59:50;;;;;;;18.43;10.17;;;;;;;;;;5015669;28;20177;-83
2021/03/03 10:02:17;;;;;;;16.30;10.10;;;;;;;;;;5033923;28;20172;-82
2021/03/03 10:04:44;;;;;;;12.67;9.57;;;;;;;;;;5036387;28;20279;-82
2021/03/03 10:07:12;;;;;;;16.83;9.03;;;;;;;;;;5073682;28;20188;-82
2021/03/03 10:09:39;;;;;;;14.67;9.83;;;;;;;;;;5071209;28;20245;-82
2021/03/03 10:12:09;;;;;;;14.93;9.93;;;;;;;;;;5037605;28;20181;-82
2021/03/03 10:14:35;;;;;;;16.03;9.90;;;;;;;;;;5027514;28;20255;-82
2021/03/03 10:17:03;;;;;;;16.53;9.57;;;;;;;;;;5047365;28;20262;-83
2021/03/03 10:19:29;;;;;;;14.67;9.83;;;;;;;;;;5036154;28;20184;-82
2021/03/03 10:21:55;;;;;;;14.57;9.80;;;;;;;;;;5052169;28;20184;-82
2021/03/03 10:24:22;;;;;;;15.03;10.33;;;;;;;;;;5048409;28;20268;-82
2021/03/03 10:26:51;;;;;;;14.30;10.03;;;;;;;;;;5054518;28;20371;-82
2021/03/03 10:29:32;;;;;;;17.63;10.20;;;;;;;;;;5049484;28;20196;-82
2021/03/03 10:32:12;;;;;;;16.30;10.77;;;;;;;;;;5054800;28;20671;-82
2021/03/03 10:34:39;;;;;;;18.00;11.37;;;;;;;;;;5042183;28;20194;-82
2021/03/03 10:37:05;;;;;;;16.57;10.50;;;;;;;;;;5035475;28;20190;-82
2021/03/03 10:39:33;;;;;;;15.93;10.70;;;;;;;;;;5035260;28;20190;-82
2021/03/03 10:42:04;;;;;;;18.93;10.97;;;;;;;;;;5054877;28;20631;-81
2021/03/03 10:44:39;;;;;;;13.90;9.63;;;;;;;;;;5054976;28;20256;-82
2021/03/03 10:47:05;;;;;;;15.37;10.93;;;;;;;;;;5040899;28;20190;-82
2021/03/03 10:49:32;;;;;;;18.03;11.57;;;;;;;;;;5037529;28;20231;-82
2021/03/03 10:51:58;;;;;;;20.00;11.60;;;;;;;;;;5033645;28;20230;-82
2021/03/03 10:54:34;;;;;;;21.90;12.30;;;;;;;;;;5034340;28;20239;-82
2021/03/03 10:57:10;;;;;;;16.17;11.70;;;;;;;;;;5055115;28;20258;-82
2021/03/03 10:59:37;;;;;;;16.13;10.57;;;;;;;;;;5055128;28;20176;-82
2021/03/03 11:02:04;;;;;;;18.67;11.83;;;;;;;;;;5051690;28;20173;-83
2021/03/03 11:04:46;;;;;;;15.67;11.70;;;;;;;;;;5039782;28;20180;-82
2021/03/03 11:07:13;;;;;;;15.70;12.30;;;;;;;;;;5043853;28;20177;-82
2021/03/03 11:09:39;;;;;;;18.50;11.70;;;;;;;;;;5039774;28;20200;-81
2021/03/03 11:12:06;;;;;;;15.57;12.30;;;;;;;;;;5067744;28;21050;-82
2021/03/03 11:14:33;;;;;;;15.93;11.27;;;;;;;;;;5046697;28;20541;-82
2021/03/03 11:16:59;;;;;;;17.27;12.40;;;;;;;;;;5050279;28;20721;-82
2021/03/03 11:19:26;;;;;;;15.10;11.83;;;;;;;;;;5054335;28;20177;-83
2021/03/03 11:21:53;;;;;;;17.93;12.03;;;;;;;;;;5046620;28;20182;-82
2021/03/03 11:24:20;;;;;;;16.83;12.83;;;;;;;;;;5034191;28;20284;-83
2021/03/03 11:26:47;;;;;;;17.10;12.83;;;;;;;;;;5039207;28;20177;-82
2021/03/03 11:29:13;;;;;;;21.83;12.90;;;;;;;;;;5044358;28;20540;-82
2021/03/03 11:31:40;;;;;;;15.87;11.80;;;;;;;;;;5047814;28;20521;-82
2021/03/03 11:34:06;;;;;;;15.73;12.03;;;;;;;;;;5071497;28;20230;-82
2021/03/03 11:36:33;;;;;;;20.30;12.90;;;;;;;;;;5044137;28;20201;-82
2021/03/03 11:38:59;;;;;;;18.53;12.90;;;;;;;;;;5055406;28;20177;-82
2021/03/03 11:41:25;;;;;;;18.17;12.57;;;;;;;;;;5045192;28;20178;-82
2021/03/03 11:43:51;;;;;;;20.33;13.43;;;;;;;;;;5042635;28;20174;-83
2021/03/03 11:46:18;;;;;;;20.03;13.50;;;;;;;;;;5070171;28;20216;-82
2021/03/03 11:48:44;;;;;;;16.73;11.87;;;;;;;;;;5054159;28;20247;-83
2021/03/03 11:51:10;;;;;;;20.50;12.77;;;;;;;;;;5049751;28;20180;-82
2021/03/03 11:53:36;;;;;;;20.43;14.13;;;;;;;;;;5051072;28;20185;-83
2021/03/03 11:56:02;;;;;;;21.17;14.47;;;;;;;;;;5053286;28;20204;-82
2021/03/03 11:58:28;;;;;;;19.80;14.80;;;;;;;;;;5065224;28;20264;-82
2021/03/03 12:00:54;;;;;;;18.37;12.63;;;;;;;;;;5055281;28;20180;-82
2021/03/03 12:03:20;;;;;;;21.20;14.80;;;;;;;;;;5039173;28;20177;-82
2021/03/03 12:05:47;;;;;;;21.10;15.73;;;;;;;;;;5049730;28;20257;-83
2021/03/03 12:08:13;;;;;;;20.67;15.77;;;;;;;;;;5053035;28;20173;-83
2021/03/03 12:10:39;;;;;;;24.93;14.93;;;;;;;;;;5044645;28;20304;-83
2021/03/03 12:13:06;;;;;;;20.50;14.63;;;;;;;;;;5035236;28;20625;-82
2021/03/03 12:15:32;;;;;;;24.33;14.07;;;;;;;;;;5033572;28;20181;-82
2021/03/03 12:17:58;;;;;;;23.17;14.90;;;;;;;;;;5052234;28;20196;-82
2021/03/03 12:20:27;;;;;;;20.93;14.97;;;;;;;;;;5044524;28;20176;-83
2021/03/03 12:22:53;;;;;;;20.77;15.93;;;;;;;;;;5055707;28;20299;-82
2021/03/03 12:25:19;;;;;;;21.70;14.70;;;;;;;;;;5075555;28;20205;-83
2021/03/03 12:27:45;;;;;;;19.53;15.37;;;;;;;;;;5046599;28;20200;-82
2021/03/03 12:30:12;;;;;;;22.63;14.33;;;;;;;;;;5040558;28;20667;-83
2021/03/03 12:32:38;;;;;;;20.30;14.53;;;;;;;;;;5072166;28;20181;-83
2021/03/03 12:35:04;;;;;;;19.27;14.20;;;;;;;;;;5040657;28;20276;-83
2021/03/03 12:37:30;;;;;;;23.10;16.07;;;;;;;;;;5049381;28;20201;-82
2021/03/03 12:39:56;;;;;;;24.57;16.03;;;;;;;;;;5064240;28;20234;-82
2021/03/03 12:42:22;;;;;;;21.67;15.10;;;;;;;;;;5041660;28;20631;-82
2021/03/03 12:44:49;;;;;;;22.60;15.63;;;;;;;;;;5041422;28;20275;-82
2021/03/03 12:47:15;;;;;;;30.27;17.40;;;;;;;;;;5043621;28;20188;-83
2021/03/03 12:49:41;;;;;;;32.43;18.20;;;;;;;;;;5056933;28;20663;-83
2021/03/03 12:52:07;;;;;;;31.57;19.43;;;;;;;;;;5056985;28;20203;-83
2021/03/03 12:54:33;;;;;;;30.37;18.50;;;;;;;;;;5067275;28;20185;-85
2021/03/03 12:56:59;;;;;;;29.63;19.43;;;;;;;;;;5046199;28;20208;-84
2021/03/03 12:59:25;;;;;;;29.60;19.80;;;;;;;;;;5056419;28;20177;-82
2021/03/03 13:01:51;;;;;;;28.20;18.70;;;;;;;;;;5063305;28;20231;-79
2021/03/03 13:04:17;;;;;;;32.83;19.97;;;;;;;;;;5065798;28;20184;-81
2021/03/03 13:06:43;;;;;;;26.87;19.33;;;;;;;;;;5045045;28;20666;-78
2021/03/03 13:09:09;;;;;;;28.73;20.07;;;;;;;;;;5035679;28;20212;-79
2021/03/03 13:11:35;;;;;;;34.07;21.53;;;;;;;;;;5053132;28;20219;-78
2021/03/03 13:14:01;;;;;;;34.40;22.27;;;;;;;;;;5059495;28;20177;-79
2021/03/03 13:16:27;;;;;;;32.63;22.50;;;;;;;;;;5067688;28;20215;-78
2021/03/03 13:18:53;;;;;;;30.93;20.93;;;;;;;;;;5046141;28;20177;-80
2021/03/03 13:21:20;;;;;;;26.10;19.80;;;;;;;;;;5063917;28;20191;-79
2021/03/03 13:23:46;;;;;;;28.17;19.10;;;;;;;;;;5073972;28;20176;-80
2021/03/03 13:26:12;;;;;;;34.50;22.40;;;;;;;;;;5040505;28;20212;-79
2021/03/03 13:28:38;;;;;;;33.40;21.57;;;;;;;;;;5050860;28;20272;-80
2021/03/03 13:31:04;;;;;;;30.73;20.53;;;;;;;;;;5039005;28;20207;-80
2021/03/03 13:33:30;;;;;;;29.17;21.83;;;;;;;;;;5047338;28;20181;-80
2021/03/03 13:35:57;;;;;;;28.90;20.93;;;;;;;;;;5067288;28;20285;-80
2021/03/03 13:38:23;;;;;;;30.93;19.90;;;;;;;;;;5069784;28;20608;-80
2021/03/03 13:40:49;;;;;;;30.50;22.27;;;;;;;;;;5068704;28;20176;-81
2021/03/03 13:43:15;;;;;;;35.97;23.33;;;;;;;;;;5049113;28;20181;-81
2021/03/03 13:45:41;;;;;;;33.93;21.27;;;;;;;;;;5059953;28;20184;-80
2021/03/03 13:48:07;;;;;;;39.17;22.83;;;;;;;;;;5042075;28;20291;-80
2021/03/03 13:50:33;;;;;;;45.10;21.23;;;;;;;;;;5044158;28;20196;-82
2021/03/03 13:52:59;;;;;;;30.20;20.50;;;;;;;;;;5045084;28;20177;-82
2021/03/03 13:55:26;;;;;;;35.40;20.77;;;;;;;;;;5049815;28;20287;-83
2021/03/03 13:57:52;;;;;;;34.60;20.43;;;;;;;;;;5048861;28;20302;-83
2021/03/03 14:00:18;;;;;;;34.63;19.57;;;;;;;;;;5055290;28;20177;-83
2021/03/03 14:02:44;;;;;;;29.93;19.63;;;;;;;;;;5050391;28;20174;-88
2021/03/03 14:05:10;;;;;;;25.90;19.67;;;;;;;;;;5050589;28;20555;-83
2021/03/03 14:07:37;;;;;;;31.03;19.20;;;;;;;;;;5053932;28;20589;-82
2021/03/03 14:10:04;;;;;;;30.67;19.43;;;;;;;;;;5040953;28;20205;-82
2021/03/03 14:12:30;;;;;;;28.50;17.63;;;;;;;;;;5050275;28;20188;-83
2021/03/03 14:14:56;;;;;;;30.87;18.03;;;;;;;;;;5044180;28;20185;-83
2021/03/03 14:17:22;;;;;;;25.40;17.77;;;;;;;;;;5070476;28;20200;-81
2021/03/03 14:19:48;;;;;;;30.43;19.70;;;;;;;;;;5055182;28;20188;-82
2021/03/03 14:22:14;;;;;;;32.40;20.03;;;;;;;;;;5048699;28;20171;-82
2021/03/03 14:24:40;;;;;;;28.30;18.90;;;;;;;;;;5038160;28;20185;-82
2021/03/03 14:27:06;;;;;;;28.23;18.57;;;;;;;;;;5045946;28;20185;-81
2021/03/03 14:29:32;;;;;;;26.47;17.50;;;;;;;;;;5048833;28;20173;-83
2021/03/03 14:31:58;;;;;;;23.23;16.70;;;;;;;;;;5073630;28;20188;-83
2021/03/03 14:34:24;;;;;;;27.40;18.97;;;;;;;;;;5054925;28;20188;-84
2021/03/03 14:36:51;;;;;;;22.33;16.43;;;;;;;;;;5072557;28;20211;-83